LTCD

Details ICAO LTCD (ERC)
Name ERZINCAN
Region Turkey
Timezone Europe/Istanbul (UTC+3.0)
Plans Departing 24
Arriving 25
Stats Elevation 3,783 ft / 1,153 m (AMSL)
Location 39.710705° 39.521140°
Runways 2
Magnetic Variation 6.048° E
Sunrise 2018-05-23 02:02:40 UTC / 2018-05-23 05:02:40 Local
Sunset 2018-05-23 16:37:30 UTC / 2018-05-23 19:37:30 Local
Advertisement - Login to hide

Runways

ID Width Length Bearing (true) Bearing (mag) Surface Threshold Offset Overrun Length
11 148 ft / 45 m 9,825 ft / 2,995 m 110.83° 104.78° Concrete 0 ft / 0 m 197 ft / 60 m
13 137 ft / 42 m 5,890 ft / 1,795 m 127.15° 121.10° Concrete 0 ft / 0 m 0 ft / 0 m
29 148 ft / 45 m 9,825 ft / 2,995 m 290.86° 284.81° Concrete 0 ft / 0 m 197 ft / 60 m
31 137 ft / 42 m 5,890 ft / 1,795 m 307.16° 301.11° Concrete 0 ft / 0 m 0 ft / 0 m

Map

Weather


0- 5 10 15 20 25 30 35+ Temperature / ° C

Clouds and Precipitation
Forecast for 2018-05-23 06:00 UTC. Updated 14 minutes ago

Ground ~20,000 ft ~40,000 ft Winds

METAR

LTCD 230450Z 26006KT CAVOK 16/11 Q1021 NOSIG

TAF

Not found

Frequencies

Ground 121.90 MHz GND
Tower 118.50 MHz TWR
Warning: Do not use this data for real-world aviation or navigation. No guarantee of current accuracy is given.